sensor_id;sensor_type;location;lat;lon;timestamp;P1;durP1;ratioP1;P2;durP2;ratioP2
39864;SDS011;25538;48.392;9.976;2022-12-24T00:00:04;1.60;;;1.13;;
39864;SDS011;25538;48.392;9.976;2022-12-24T00:02:30;3.17;;;1.70;;
39864;SDS011;25538;48.392;9.976;2022-12-24T00:04:56;2.97;;;1.47;;
39864;SDS011;25538;48.392;9.976;2022-12-24T00:07:22;1.90;;;1.47;;
39864;SDS011;25538;48.392;9.976;2022-12-24T00:09:48;1.37;;;1.20;;
39864;SDS011;25538;48.392;9.976;2022-12-24T00:12:14;1.53;;;1.40;;
39864;SDS011;25538;48.392;9.976;2022-12-24T00:14:40;2.20;;;1.53;;
39864;SDS011;25538;48.392;9.976;2022-12-24T00:17:06;4.73;;;1.43;;
39864;SDS011;25538;48.392;9.976;2022-12-24T00:19:32;2.88;;;1.35;;
39864;SDS011;25538;48.392;9.976;2022-12-24T00:21:58;2.33;;;2.13;;
39864;SDS011;25538;48.392;9.976;2022-12-24T00:24:24;3.47;;;1.60;;
39864;SDS011;25538;48.392;9.976;2022-12-24T00:26:49;5.50;;;1.80;;
39864;SDS011;25538;48.392;9.976;2022-12-24T00:29:15;2.30;;;1.30;;
39864;SDS011;25538;48.392;9.976;2022-12-24T00:31:41;3.03;;;1.80;;
39864;SDS011;25538;48.392;9.976;2022-12-24T00:34:07;6.33;;;2.13;;
39864;SDS011;25538;48.392;9.976;2022-12-24T00:36:33;5.63;;;1.67;;
39864;SDS011;25538;48.392;9.976;2022-12-24T00:38:59;3.93;;;1.87;;
39864;SDS011;25538;48.392;9.976;2022-12-24T00:41:25;1.93;;;1.63;;
39864;SDS011;25538;48.392;9.976;2022-12-24T00:46:34;2.28;;;2.05;;
39864;SDS011;25538;48.392;9.976;2022-12-24T00:49:03;3.50;;;2.33;;
39864;SDS011;25538;48.392;9.976;2022-12-24T00:51:30;2.22;;;2.00;;
39864;SDS011;25538;48.392;9.976;2022-12-24T00:53:56;1.85;;;1.75;;
39864;SDS011;25538;48.392;9.976;2022-12-24T00:56:22;3.17;;;2.07;;
39864;SDS011;25538;48.392;9.976;2022-12-24T00:58:48;2.20;;;1.98;;
39864;SDS011;25538;48.392;9.976;2022-12-24T01:01:14;2.70;;;1.83;;
39864;SDS011;25538;48.392;9.976;2022-12-24T01:03:41;2.00;;;1.80;;
39864;SDS011;25538;48.392;9.976;2022-12-24T01:06:08;2.20;;;1.67;;
39864;SDS011;25538;48.392;9.976;2022-12-24T01:08:36;4.88;;;2.13;;
39864;SDS011;25538;48.392;9.976;2022-12-24T01:11:03;1.52;;;1.42;;
39864;SDS011;25538;48.392;9.976;2022-12-24T01:13:29;1.80;;;1.60;;
39864;SDS011;25538;48.392;9.976;2022-12-24T01:15:55;4.57;;;1.80;;
39864;SDS011;25538;48.392;9.976;2022-12-24T01:18:21;4.83;;;2.30;;
39864;SDS011;25538;48.392;9.976;2022-12-24T01:23:40;3.63;;;1.80;;
39864;SDS011;25538;48.392;9.976;2022-12-24T01:26:06;2.60;;;1.70;;
39864;SDS011;25538;48.392;9.976;2022-12-24T01:28:36;1.55;;;1.45;;
39864;SDS011;25538;48.392;9.976;2022-12-24T01:31:02;1.52;;;1.42;;
39864;SDS011;25538;48.392;9.976;2022-12-24T01:33:38;2.63;;;2.03;;
39864;SDS011;25538;48.392;9.976;2022-12-24T01:36:04;2.28;;;1.30;;
39864;SDS011;25538;48.392;9.976;2022-12-24T01:38:30;4.63;;;1.35;;
39864;SDS011;25538;48.392;9.976;2022-12-24T01:40:56;1.80;;;1.40;;
39864;SDS011;25538;48.392;9.976;2022-12-24T01:43:41;3.30;;;1.70;;
39864;SDS011;25538;48.392;9.976;2022-12-24T01:46:10;1.87;;;1.67;;
39864;SDS011;25538;48.392;9.976;2022-12-24T01:48:44;3.80;;;2.30;;
39864;SDS011;25538;48.392;9.976;2022-12-24T01:51:14;2.25;;;1.55;;
39864;SDS011;25538;48.392;9.976;2022-12-24T01:54:17;1.88;;;1.65;;
39864;SDS011;25538;48.392;9.976;2022-12-24T01:57:07;1.77;;;1.30;;
39864;SDS011;25538;48.392;9.976;2022-12-24T01:59:37;5.00;;;1.73;;
39864;SDS011;25538;48.392;9.976;2022-12-24T02:02:07;2.63;;;1.40;;
39864;SDS011;25538;48.392;9.976;2022-12-24T02:07:05;2.08;;;1.52;;
39864;SDS011;25538;48.392;9.976;2022-12-24T02:09:32;2.72;;;2.40;;
39864;SDS011;25538;48.392;9.976;2022-12-24T02:12:00;3.75;;;1.80;;
39864;SDS011;25538;48.392;9.976;2022-12-24T02:14:27;1.13;;;1.05;;
39864;SDS011;25538;48.392;9.976;2022-12-24T02:22:16;3.50;;;1.23;;
39864;SDS011;25538;48.392;9.976;2022-12-24T02:28:11;6.78;;;1.83;;
39864;SDS011;25538;48.392;9.976;2022-12-24T02:31:08;1.88;;;1.70;;
39864;SDS011;25538;48.392;9.976;2022-12-24T02:36:34;2.15;;;1.27;;
39864;SDS011;25538;48.392;9.976;2022-12-24T02:39:42;2.67;;;1.58;;
39864;SDS011;25538;48.392;9.976;2022-12-24T02:42:10;2.00;;;1.83;;
39864;SDS011;25538;48.392;9.976;2022-12-24T02:44:41;2.20;;;1.70;;
39864;SDS011;25538;48.392;9.976;2022-12-24T02:47:13;4.68;;;1.98;;
39864;SDS011;25538;48.392;9.976;2022-12-24T02:49:43;4.57;;;2.42;;
39864;SDS011;25538;48.392;9.976;2022-12-24T02:54:59;2.63;;;2.42;;
39864;SDS011;25538;48.392;9.976;2022-12-24T03:00:25;4.13;;;2.67;;
39864;SDS011;25538;48.392;9.976;2022-12-24T03:03:11;2.83;;;2.63;;
39864;SDS011;25538;48.392;9.976;2022-12-24T03:06:19;2.70;;;2.50;;
39864;SDS011;25538;48.392;9.976;2022-12-24T03:09:00;2.83;;;2.50;;
39864;SDS011;25538;48.392;9.976;2022-12-24T03:11:49;2.15;;;1.70;;
39864;SDS011;25538;48.392;9.976;2022-12-24T03:14:21;2.92;;;2.25;;
39864;SDS011;25538;48.392;9.976;2022-12-24T03:16:47;3.30;;;2.35;;
39864;SDS011;25538;48.392;9.976;2022-12-24T03:19:14;2.17;;;1.95;;
39864;SDS011;25538;48.392;9.976;2022-12-24T03:21:41;2.13;;;1.80;;
39864;SDS011;25538;48.392;9.976;2022-12-24T03:24:07;4.40;;;2.22;;
39864;SDS011;25538;48.392;9.976;2022-12-24T03:26:34;2.13;;;1.98;;
39864;SDS011;25538;48.392;9.976;2022-12-24T03:29:05;2.30;;;1.90;;
39864;SDS011;25538;48.392;9.976;2022-12-24T03:31:42;2.30;;;2.08;;
39864;SDS011;25538;48.392;9.976;2022-12-24T03:34:09;5.57;;;2.55;;
39864;SDS011;25538;48.392;9.976;2022-12-24T03:36:36;2.47;;;2.25;;
39864;SDS011;25538;48.392;9.976;2022-12-24T03:39:02;2.40;;;1.80;;
39864;SDS011;25538;48.392;9.976;2022-12-24T03:41:29;4.05;;;1.80;;
39864;SDS011;25538;48.392;9.976;2022-12-24T03:43:55;5.20;;;3.07;;
39864;SDS011;25538;48.392;9.976;2022-12-24T03:46:21;5.88;;;2.53;;
39864;SDS011;25538;48.392;9.976;2022-12-24T03:48:46;1.97;;;1.87;;
39864;SDS011;25538;48.392;9.976;2022-12-24T03:51:16;2.97;;;1.60;;
39864;SDS011;25538;48.392;9.976;2022-12-24T03:53:44;3.10;;;2.33;;
39864;SDS011;25538;48.392;9.976;2022-12-24T03:56:10;2.80;;;2.00;;
39864;SDS011;25538;48.392;9.976;2022-12-24T03:58:36;1.93;;;1.80;;
39864;SDS011;25538;48.392;9.976;2022-12-24T04:01:02;4.07;;;2.40;;
39864;SDS011;25538;48.392;9.976;2022-12-24T04:03:28;2.40;;;2.00;;
39864;SDS011;25538;48.392;9.976;2022-12-24T04:06:06;3.27;;;1.53;;
39864;SDS011;25538;48.392;9.976;2022-12-24T04:08:42;2.90;;;1.85;;
39864;SDS011;25538;48.392;9.976;2022-12-24T04:11:09;2.92;;;2.20;;
39864;SDS011;25538;48.392;9.976;2022-12-24T04:13:37;2.63;;;1.80;;
39864;SDS011;25538;48.392;9.976;2022-12-24T04:16:04;2.40;;;2.17;;
39864;SDS011;25538;48.392;9.976;2022-12-24T04:18:35;2.92;;;1.95;;
39864;SDS011;25538;48.392;9.976;2022-12-24T04:21:02;3.03;;;1.63;;
39864;SDS011;25538;48.392;9.976;2022-12-24T04:23:32;4.05;;;1.73;;
39864;SDS011;25538;48.392;9.976;2022-12-24T04:25:59;2.95;;;1.90;;
39864;SDS011;25538;48.392;9.976;2022-12-24T04:28:27;3.33;;;1.70;;
39864;SDS011;25538;48.392;9.976;2022-12-24T04:30:57;3.15;;;1.80;;
39864;SDS011;25538;48.392;9.976;2022-12-24T04:33:24;2.53;;;1.95;;
39864;SDS011;25538;48.392;9.976;2022-12-24T04:35:50;3.90;;;1.98;;
39864;SDS011;25538;48.392;9.976;2022-12-24T04:38:16;2.60;;;1.93;;
39864;SDS011;25538;48.392;9.976;2022-12-24T04:40:42;2.67;;;2.17;;
39864;SDS011;25538;48.392;9.976;2022-12-24T04:43:08;2.67;;;2.10;;
39864;SDS011;25538;48.392;9.976;2022-12-24T04:45:34;3.70;;;1.80;;
39864;SDS011;25538;48.392;9.976;2022-12-24T04:48:00;3.10;;;1.90;;
39864;SDS011;25538;48.392;9.976;2022-12-24T04:50:26;3.25;;;1.75;;
39864;SDS011;25538;48.392;9.976;2022-12-24T04:52:52;2.73;;;1.80;;
39864;SDS011;25538;48.392;9.976;2022-12-24T04:55:18;2.33;;;1.90;;
39864;SDS011;25538;48.392;9.976;2022-12-24T04:57:44;3.88;;;1.70;;
39864;SDS011;25538;48.392;9.976;2022-12-24T05:00:10;3.23;;;1.70;;
39864;SDS011;25538;48.392;9.976;2022-12-24T05:02:36;2.22;;;2.10;;
39864;SDS011;25538;48.392;9.976;2022-12-24T05:05:02;3.43;;;1.87;;
39864;SDS011;25538;48.392;9.976;2022-12-24T05:07:28;4.20;;;2.10;;
39864;SDS011;25538;48.392;9.976;2022-12-24T05:09:54;5.13;;;2.70;;
39864;SDS011;25538;48.392;9.976;2022-12-24T05:12:20;2.43;;;1.90;;
39864;SDS011;25538;48.392;9.976;2022-12-24T05:14:46;2.73;;;1.63;;
39864;SDS011;25538;48.392;9.976;2022-12-24T05:17:12;4.40;;;2.20;;
39864;SDS011;25538;48.392;9.976;2022-12-24T05:19:37;3.13;;;2.40;;
39864;SDS011;25538;48.392;9.976;2022-12-24T05:22:03;6.60;;;2.20;;
39864;SDS011;25538;48.392;9.976;2022-12-24T05:24:48;4.20;;;1.92;;
39864;SDS011;25538;48.392;9.976;2022-12-24T05:27:32;3.20;;;2.03;;
39864;SDS011;25538;48.392;9.976;2022-12-24T05:29:58;3.80;;;2.67;;
39864;SDS011;25538;48.392;9.976;2022-12-24T05:32:24;4.15;;;3.75;;
39864;SDS011;25538;48.392;9.976;2022-12-24T05:34:50;4.53;;;2.40;;
39864;SDS011;25538;48.392;9.976;2022-12-24T05:37:16;3.67;;;2.53;;
39864;SDS011;25538;48.392;9.976;2022-12-24T05:39:42;4.23;;;2.20;;
39864;SDS011;25538;48.392;9.976;2022-12-24T05:42:07;3.03;;;1.70;;
39864;SDS011;25538;48.392;9.976;2022-12-24T05:44:33;3.70;;;2.47;;
39864;SDS011;25538;48.392;9.976;2022-12-24T05:46:59;4.63;;;2.23;;
39864;SDS011;25538;48.392;9.976;2022-12-24T05:49:25;2.90;;;2.43;;
39864;SDS011;25538;48.392;9.976;2022-12-24T05:51:51;3.83;;;1.95;;
39864;SDS011;25538;48.392;9.976;2022-12-24T05:54:17;4.27;;;2.80;;
39864;SDS011;25538;48.392;9.976;2022-12-24T05:56:43;3.60;;;2.40;;
39864;SDS011;25538;48.392;9.976;2022-12-24T05:59:08;3.20;;;1.97;;
39864;SDS011;25538;48.392;9.976;2022-12-24T06:01:35;2.70;;;2.13;;
39864;SDS011;25538;48.392;9.976;2022-12-24T06:04:00;2.55;;;2.35;;
39864;SDS011;25538;48.392;9.976;2022-12-24T06:06:27;3.35;;;2.13;;
39864;SDS011;25538;48.392;9.976;2022-12-24T06:08:53;6.10;;;2.53;;
39864;SDS011;25538;48.392;9.976;2022-12-24T06:11:22;10.63;;;2.70;;
39864;SDS011;25538;48.392;9.976;2022-12-24T06:13:49;3.35;;;2.28;;
39864;SDS011;25538;48.392;9.976;2022-12-24T06:16:17;4.07;;;2.20;;
39864;SDS011;25538;48.392;9.976;2022-12-24T06:18:44;5.93;;;2.35;;
39864;SDS011;25538;48.392;9.976;2022-12-24T06:21:10;3.58;;;2.42;;
39864;SDS011;25538;48.392;9.976;2022-12-24T06:23:37;2.80;;;2.55;;
39864;SDS011;25538;48.392;9.976;2022-12-24T06:26:05;2.42;;;2.17;;
39864;SDS011;25538;48.392;9.976;2022-12-24T06:28:33;3.97;;;2.38;;
39864;SDS011;25538;48.392;9.976;2022-12-24T06:31:01;4.78;;;2.10;;
39864;SDS011;25538;48.392;9.976;2022-12-24T06:36:12;2.50;;;2.40;;
39864;SDS011;25538;48.392;9.976;2022-12-24T06:38:40;2.78;;;2.30;;
39864;SDS011;25538;48.392;9.976;2022-12-24T06:41:06;3.43;;;2.10;;
39864;SDS011;25538;48.392;9.976;2022-12-24T06:43:32;3.00;;;2.30;;
39864;SDS011;25538;48.392;9.976;2022-12-24T06:45:59;5.40;;;2.33;;
39864;SDS011;25538;48.392;9.976;2022-12-24T06:48:26;3.95;;;2.35;;
39864;SDS011;25538;48.392;9.976;2022-12-24T06:50:52;4.38;;;2.63;;
39864;SDS011;25538;48.392;9.976;2022-12-24T06:53:18;3.27;;;2.37;;
39864;SDS011;25538;48.392;9.976;2022-12-24T06:55:44;4.00;;;2.30;;
39864;SDS011;25538;48.392;9.976;2022-12-24T06:58:10;2.07;;;1.70;;
39864;SDS011;25538;48.392;9.976;2022-12-24T07:00:36;4.67;;;2.97;;
39864;SDS011;25538;48.392;9.976;2022-12-24T07:03:02;3.03;;;2.80;;
39864;SDS011;25538;48.392;9.976;2022-12-24T07:05:28;3.50;;;2.70;;
39864;SDS011;25538;48.392;9.976;2022-12-24T07:07:54;4.72;;;2.63;;
39864;SDS011;25538;48.392;9.976;2022-12-24T07:10:21;3.50;;;2.33;;
39864;SDS011;25538;48.392;9.976;2022-12-24T07:12:47;8.27;;;3.10;;
39864;SDS011;25538;48.392;9.976;2022-12-24T07:15:14;3.67;;;2.58;;
39864;SDS011;25538;48.392;9.976;2022-12-24T07:17:40;4.50;;;3.78;;
39864;SDS011;25538;48.392;9.976;2022-12-24T07:20:07;4.93;;;2.45;;
39864;SDS011;25538;48.392;9.976;2022-12-24T07:22:37;3.72;;;2.58;;
39864;SDS011;25538;48.392;9.976;2022-12-24T07:25:03;5.53;;;3.20;;
39864;SDS011;25538;48.392;9.976;2022-12-24T07:27:29;3.00;;;2.38;;
39864;SDS011;25538;48.392;9.976;2022-12-24T07:29:55;3.38;;;3.08;;
39864;SDS011;25538;48.392;9.976;2022-12-24T07:32:21;2.23;;;2.00;;
39864;SDS011;25538;48.392;9.976;2022-12-24T07:34:47;6.70;;;2.77;;
39864;SDS011;25538;48.392;9.976;2022-12-24T07:37:13;2.60;;;2.20;;
39864;SDS011;25538;48.392;9.976;2022-12-24T07:39:39;4.00;;;2.50;;
39864;SDS011;25538;48.392;9.976;2022-12-24T07:42:05;3.30;;;2.20;;
39864;SDS011;25538;48.392;9.976;2022-12-24T07:44:32;3.63;;;1.80;;
39864;SDS011;25538;48.392;9.976;2022-12-24T07:46:58;8.35;;;2.50;;
39864;SDS011;25538;48.392;9.976;2022-12-24T07:49:24;3.03;;;1.60;;
39864;SDS011;25538;48.392;9.976;2022-12-24T07:51:50;1.80;;;1.70;;
39864;SDS011;25538;48.392;9.976;2022-12-24T07:54:16;3.03;;;2.13;;
39864;SDS011;25538;48.392;9.976;2022-12-24T07:56:42;6.77;;;2.47;;
39864;SDS011;25538;48.392;9.976;2022-12-24T07:59:09;7.37;;;2.30;;
39864;SDS011;25538;48.392;9.976;2022-12-24T08:01:37;3.90;;;2.25;;
39864;SDS011;25538;48.392;9.976;2022-12-24T08:04:03;7.35;;;2.13;;
39864;SDS011;25538;48.392;9.976;2022-12-24T08:06:29;5.45;;;2.60;;
39864;SDS011;25538;48.392;9.976;2022-12-24T08:08:55;6.90;;;2.30;;
39864;SDS011;25538;48.392;9.976;2022-12-24T08:11:21;5.00;;;2.50;;
39864;SDS011;25538;48.392;9.976;2022-12-24T08:13:47;4.10;;;1.83;;
39864;SDS011;25538;48.392;9.976;2022-12-24T08:16:13;5.20;;;2.70;;
39864;SDS011;25538;48.392;9.976;2022-12-24T08:18:39;3.03;;;2.58;;
39864;SDS011;25538;48.392;9.976;2022-12-24T08:21:06;3.95;;;2.50;;
39864;SDS011;25538;48.392;9.976;2022-12-24T08:23:33;5.00;;;2.42;;
39864;SDS011;25538;48.392;9.976;2022-12-24T08:25:59;4.47;;;2.15;;
39864;SDS011;25538;48.392;9.976;2022-12-24T08:28:25;2.80;;;1.87;;
39864;SDS011;25538;48.392;9.976;2022-12-24T08:30:51;7.90;;;3.10;;
39864;SDS011;25538;48.392;9.976;2022-12-24T08:33:18;5.95;;;2.10;;
39864;SDS011;25538;48.392;9.976;2022-12-24T08:35:49;3.97;;;2.72;;
39864;SDS011;25538;48.392;9.976;2022-12-24T08:38:17;4.78;;;2.55;;
39864;SDS011;25538;48.392;9.976;2022-12-24T08:40:44;4.80;;;2.90;;
39864;SDS011;25538;48.392;9.976;2022-12-24T08:43:13;5.65;;;2.50;;
39864;SDS011;25538;48.392;9.976;2022-12-24T08:45:39;4.88;;;2.90;;
39864;SDS011;25538;48.392;9.976;2022-12-24T08:48:06;3.40;;;2.43;;
39864;SDS011;25538;48.392;9.976;2022-12-24T08:50:33;7.32;;;2.80;;
39864;SDS011;25538;48.392;9.976;2022-12-24T08:52:59;5.80;;;2.30;;
39864;SDS011;25538;48.392;9.976;2022-12-24T08:55:25;3.70;;;2.20;;
39864;SDS011;25538;48.392;9.976;2022-12-24T08:57:51;6.35;;;2.95;;
39864;SDS011;25538;48.392;9.976;2022-12-24T09:00:17;7.50;;;3.23;;
39864;SDS011;25538;48.392;9.976;2022-12-24T09:02:43;3.90;;;3.25;;
39864;SDS011;25538;48.392;9.976;2022-12-24T09:05:09;4.73;;;2.83;;
39864;SDS011;25538;48.392;9.976;2022-12-24T09:07:35;7.57;;;3.42;;
39864;SDS011;25538;48.392;9.976;2022-12-24T09:10:01;6.57;;;3.10;;
39864;SDS011;25538;48.392;9.976;2022-12-24T09:12:28;5.93;;;2.60;;
39864;SDS011;25538;48.392;9.976;2022-12-24T09:14:54;5.60;;;3.35;;
39864;SDS011;25538;48.392;9.976;2022-12-24T09:17:20;8.60;;;3.40;;
39864;SDS011;25538;48.392;9.976;2022-12-24T09:19:46;4.13;;;2.45;;
39864;SDS011;25538;48.392;9.976;2022-12-24T09:22:12;6.28;;;2.92;;
39864;SDS011;25538;48.392;9.976;2022-12-24T09:24:39;10.25;;;3.22;;
39864;SDS011;25538;48.392;9.976;2022-12-24T09:27:05;7.10;;;3.87;;
39864;SDS011;25538;48.392;9.976;2022-12-24T09:29:31;9.87;;;3.90;;
39864;SDS011;25538;48.392;9.976;2022-12-24T09:31:57;9.68;;;4.35;;
39864;SDS011;25538;48.392;9.976;2022-12-24T09:34:23;6.03;;;4.00;;
39864;SDS011;25538;48.392;9.976;2022-12-24T09:36:49;4.65;;;4.18;;
39864;SDS011;25538;48.392;9.976;2022-12-24T09:39:16;4.70;;;3.42;;
39864;SDS011;25538;48.392;9.976;2022-12-24T09:42:25;4.28;;;2.58;;
39864;SDS011;25538;48.392;9.976;2022-12-24T09:47:52;4.10;;;2.95;;
39864;SDS011;25538;48.392;9.976;2022-12-24T09:50:40;6.47;;;3.03;;
39864;SDS011;25538;48.392;9.976;2022-12-24T09:53:23;3.83;;;2.53;;
39864;SDS011;25538;48.392;9.976;2022-12-24T09:56:00;3.20;;;2.83;;
39864;SDS011;25538;48.392;9.976;2022-12-24T09:58:34;4.32;;;2.70;;
39864;SDS011;25538;48.392;9.976;2022-12-24T10:01:04;2.72;;;1.98;;
39864;SDS011;25538;48.392;9.976;2022-12-24T10:03:31;2.20;;;1.88;;
39864;SDS011;25538;48.392;9.976;2022-12-24T10:11:10;5.43;;;1.83;;
39864;SDS011;25538;48.392;9.976;2022-12-24T10:19:22;2.20;;;2.00;;
39864;SDS011;25538;48.392;9.976;2022-12-24T10:22:00;3.40;;;2.33;;
39864;SDS011;25538;48.392;9.976;2022-12-24T10:24:50;4.20;;;2.55;;
39864;SDS011;25538;48.392;9.976;2022-12-24T10:27:20;4.20;;;2.95;;
39864;SDS011;25538;48.392;9.976;2022-12-24T10:29:56;2.78;;;2.42;;
39864;SDS011;25538;48.392;9.976;2022-12-24T10:32:30;2.67;;;1.73;;
39864;SDS011;25538;48.392;9.976;2022-12-24T10:37:41;1.70;;;1.60;;
39864;SDS011;25538;48.392;9.976;2022-12-24T10:42:50;3.33;;;2.40;;
39864;SDS011;25538;48.392;9.976;2022-12-24T10:45:16;2.13;;;1.90;;
39864;SDS011;25538;48.392;9.976;2022-12-24T10:47:47;5.57;;;1.90;;
39864;SDS011;25538;48.392;9.976;2022-12-24T10:50:31;4.70;;;2.92;;
39864;SDS011;25538;48.392;9.976;2022-12-24T10:53:17;5.05;;;2.65;;
39864;SDS011;25538;48.392;9.976;2022-12-24T10:56:02;4.43;;;2.75;;
39864;SDS011;25538;48.392;9.976;2022-12-24T10:58:30;3.67;;;2.10;;
39864;SDS011;25538;48.392;9.976;2022-12-24T11:00:57;4.13;;;2.45;;
39864;SDS011;25538;48.392;9.976;2022-12-24T11:03:24;4.95;;;3.13;;
39864;SDS011;25538;48.392;9.976;2022-12-24T11:08:35;4.55;;;3.20;;
39864;SDS011;25538;48.392;9.976;2022-12-24T11:11:06;4.28;;;2.47;;
39864;SDS011;25538;48.392;9.976;2022-12-24T11:13:38;4.45;;;2.35;;
39864;SDS011;25538;48.392;9.976;2022-12-24T11:16:20;3.03;;;2.17;;
39864;SDS011;25538;48.392;9.976;2022-12-24T11:18:57;3.05;;;2.70;;
39864;SDS011;25538;48.392;9.976;2022-12-24T11:21:32;2.65;;;2.30;;
39864;SDS011;25538;48.392;9.976;2022-12-24T11:24:07;4.90;;;2.20;;
39864;SDS011;25538;48.392;9.976;2022-12-24T11:26:53;5.60;;;2.67;;
39864;SDS011;25538;48.392;9.976;2022-12-24T11:29:39;12.55;;;3.10;;
39864;SDS011;25538;48.392;9.976;2022-12-24T11:32:09;4.63;;;2.53;;
39864;SDS011;25538;48.392;9.976;2022-12-24T11:34:45;4.55;;;3.63;;
39864;SDS011;25538;48.392;9.976;2022-12-24T11:37:21;3.07;;;2.60;;
39864;SDS011;25538;48.392;9.976;2022-12-24T11:39:52;6.05;;;2.80;;
39864;SDS011;25538;48.392;9.976;2022-12-24T11:44:56;2.72;;;2.17;;
39864;SDS011;25538;48.392;9.976;2022-12-24T11:57:59;4.18;;;2.83;;
39864;SDS011;25538;48.392;9.976;2022-12-24T12:00:30;3.47;;;2.42;;
39864;SDS011;25538;48.392;9.976;2022-12-24T12:02:57;4.90;;;2.63;;
39864;SDS011;25538;48.392;9.976;2022-12-24T12:05:26;5.63;;;3.10;;
39864;SDS011;25538;48.392;9.976;2022-12-24T12:08:02;4.97;;;2.50;;
39864;SDS011;25538;48.392;9.976;2022-12-24T12:10:42;5.47;;;2.88;;
39864;SDS011;25538;48.392;9.976;2022-12-24T12:13:11;4.40;;;3.03;;
39864;SDS011;25538;48.392;9.976;2022-12-24T12:15:48;5.85;;;2.60;;
39864;SDS011;25538;48.392;9.976;2022-12-24T12:18:23;4.28;;;2.03;;
39864;SDS011;25538;48.392;9.976;2022-12-24T12:20:59;5.10;;;2.65;;
39864;SDS011;25538;48.392;9.976;2022-12-24T12:26:28;4.60;;;2.40;;
39864;SDS011;25538;48.392;9.976;2022-12-24T12:29:19;6.63;;;2.38;;
39864;SDS011;25538;48.392;9.976;2022-12-24T12:31:58;3.22;;;1.90;;
39864;SDS011;25538;48.392;9.976;2022-12-24T12:34:38;2.53;;;2.13;;
39864;SDS011;25538;48.392;9.976;2022-12-24T12:37:17;4.47;;;1.90;;
39864;SDS011;25538;48.392;9.976;2022-12-24T12:39:48;3.97;;;2.80;;
39864;SDS011;25538;48.392;9.976;2022-12-24T12:42:19;5.43;;;2.88;;
39864;SDS011;25538;48.392;9.976;2022-12-24T12:56:18;5.70;;;1.73;;
39864;SDS011;25538;48.392;9.976;2022-12-24T12:58:54;3.97;;;2.10;;
39864;SDS011;25538;48.392;9.976;2022-12-24T13:15:27;3.35;;;2.55;;
39864;SDS011;25538;48.392;9.976;2022-12-24T13:20:48;2.80;;;2.60;;
39864;SDS011;25538;48.392;9.976;2022-12-24T13:23:22;5.25;;;2.10;;
39864;SDS011;25538;48.392;9.976;2022-12-24T13:25:51;4.13;;;2.03;;
39864;SDS011;25538;48.392;9.976;2022-12-24T13:30:52;2.85;;;2.13;;
39864;SDS011;25538;48.392;9.976;2022-12-24T13:36:08;3.83;;;1.90;;
39864;SDS011;25538;48.392;9.976;2022-12-24T13:46:51;2.65;;;2.20;;
39864;SDS011;25538;48.392;9.976;2022-12-24T13:49:29;2.65;;;2.10;;
39864;SDS011;25538;48.392;9.976;2022-12-24T13:54:37;2.95;;;2.55;;
39864;SDS011;25538;48.392;9.976;2022-12-24T14:02:34;2.35;;;1.98;;
39864;SDS011;25538;48.392;9.976;2022-12-24T14:05:05;2.38;;;2.17;;
39864;SDS011;25538;48.392;9.976;2022-12-24T14:07:46;3.25;;;2.30;;
39864;SDS011;25538;48.392;9.976;2022-12-24T14:10:22;3.40;;;2.17;;
39864;SDS011;25538;48.392;9.976;2022-12-24T14:16:23;3.42;;;2.88;;
39864;SDS011;25538;48.392;9.976;2022-12-24T14:21:37;4.93;;;2.55;;
39864;SDS011;25538;48.392;9.976;2022-12-24T14:24:17;2.88;;;2.67;;
39864;SDS011;25538;48.392;9.976;2022-12-24T14:26:46;2.78;;;2.25;;
39864;SDS011;25538;48.392;9.976;2022-12-24T14:31:54;2.22;;;2.00;;
39864;SDS011;25538;48.392;9.976;2022-12-24T14:34:21;3.75;;;1.90;;
39864;SDS011;25538;48.392;9.976;2022-12-24T14:36:47;3.63;;;2.92;;
39864;SDS011;25538;48.392;9.976;2022-12-24T14:50:50;3.45;;;2.20;;
39864;SDS011;25538;48.392;9.976;2022-12-24T14:55:48;2.78;;;2.35;;
39864;SDS011;25538;48.392;9.976;2022-12-24T14:58:27;4.95;;;2.33;;
39864;SDS011;25538;48.392;9.976;2022-12-24T15:00:59;6.18;;;3.67;;
39864;SDS011;25538;48.392;9.976;2022-12-24T15:03:28;4.38;;;3.20;;
39864;SDS011;25538;48.392;9.976;2022-12-24T15:05:57;6.50;;;5.03;;
39864;SDS011;25538;48.392;9.976;2022-12-24T15:08:29;6.78;;;5.60;;
39864;SDS011;25538;48.392;9.976;2022-12-24T15:10:59;6.25;;;4.88;;
39864;SDS011;25538;48.392;9.976;2022-12-24T15:15:58;5.03;;;3.92;;
39864;SDS011;25538;48.392;9.976;2022-12-24T15:18:27;5.05;;;4.47;;
39864;SDS011;25538;48.392;9.976;2022-12-24T15:20:58;5.82;;;4.03;;
39864;SDS011;25538;48.392;9.976;2022-12-24T15:23:34;4.25;;;3.50;;
39864;SDS011;25538;48.392;9.976;2022-12-24T15:26:13;3.22;;;3.03;;
39864;SDS011;25538;48.392;9.976;2022-12-24T15:28:47;3.97;;;3.50;;
39864;SDS011;25538;48.392;9.976;2022-12-24T15:31:17;3.72;;;2.47;;
39864;SDS011;25538;48.392;9.976;2022-12-24T15:33:46;3.45;;;2.95;;
39864;SDS011;25538;48.392;9.976;2022-12-24T15:36:13;2.72;;;2.53;;
39864;SDS011;25538;48.392;9.976;2022-12-24T15:38:41;3.63;;;3.00;;
39864;SDS011;25538;48.392;9.976;2022-12-24T15:41:17;4.55;;;3.60;;
39864;SDS011;25538;48.392;9.976;2022-12-24T15:43:50;4.82;;;3.70;;
39864;SDS011;25538;48.392;9.976;2022-12-24T15:46:18;3.40;;;3.20;;
39864;SDS011;25538;48.392;9.976;2022-12-24T15:48:49;5.25;;;3.50;;
39864;SDS011;25538;48.392;9.976;2022-12-24T15:51:20;2.80;;;2.60;;
39864;SDS011;25538;48.392;9.976;2022-12-24T15:53:50;5.40;;;3.30;;
39864;SDS011;25538;48.392;9.976;2022-12-24T15:56:35;2.72;;;2.53;;
39864;SDS011;25538;48.392;9.976;2022-12-24T15:59:37;4.03;;;2.90;;
39864;SDS011;25538;48.392;9.976;2022-12-24T16:02:16;3.78;;;2.60;;
39864;SDS011;25538;48.392;9.976;2022-12-24T16:04:49;4.15;;;2.65;;
39864;SDS011;25538;48.392;9.976;2022-12-24T16:07:25;7.00;;;2.60;;
39864;SDS011;25538;48.392;9.976;2022-12-24T16:10:23;2.72;;;2.53;;
39864;SDS011;25538;48.392;9.976;2022-12-24T16:12:50;4.97;;;4.55;;
39864;SDS011;25538;48.392;9.976;2022-12-24T16:15:16;3.90;;;3.60;;
39864;SDS011;25538;48.392;9.976;2022-12-24T16:17:46;4.05;;;3.72;;
39864;SDS011;25538;48.392;9.976;2022-12-24T16:20:15;3.50;;;3.20;;
39864;SDS011;25538;48.392;9.976;2022-12-24T16:22:45;5.35;;;4.85;;
39864;SDS011;25538;48.392;9.976;2022-12-24T16:25:22;4.35;;;3.95;;
39864;SDS011;25538;48.392;9.976;2022-12-24T16:27:50;5.35;;;4.85;;
39864;SDS011;25538;48.392;9.976;2022-12-24T16:30:17;4.78;;;4.32;;
39864;SDS011;25538;48.392;9.976;2022-12-24T16:32:44;5.07;;;4.05;;
39864;SDS011;25538;48.392;9.976;2022-12-24T16:35:16;5.00;;;4.22;;
39864;SDS011;25538;48.392;9.976;2022-12-24T16:37:57;3.08;;;2.78;;
39864;SDS011;25538;48.392;9.976;2022-12-24T16:40:23;6.07;;;3.80;;
39864;SDS011;25538;48.392;9.976;2022-12-24T16:42:49;5.15;;;4.75;;
39864;SDS011;25538;48.392;9.976;2022-12-24T16:45:34;4.93;;;4.63;;
39864;SDS011;25538;48.392;9.976;2022-12-24T16:48:01;4.07;;;3.67;;
39864;SDS011;25538;48.392;9.976;2022-12-24T16:50:29;4.20;;;3.83;;
39864;SDS011;25538;48.392;9.976;2022-12-24T16:52:55;3.50;;;3.30;;
39864;SDS011;25538;48.392;9.976;2022-12-24T16:55:21;6.13;;;4.00;;
39864;SDS011;25538;48.392;9.976;2022-12-24T16:57:46;5.53;;;3.80;;
39864;SDS011;25538;48.392;9.976;2022-12-24T17:02:42;3.60;;;3.30;;
39864;SDS011;25538;48.392;9.976;2022-12-24T17:05:09;4.22;;;3.80;;
39864;SDS011;25538;48.392;9.976;2022-12-24T17:07:36;4.15;;;3.30;;
39864;SDS011;25538;48.392;9.976;2022-12-24T17:10:02;3.97;;;3.60;;
39864;SDS011;25538;48.392;9.976;2022-12-24T17:12:28;3.15;;;2.95;;
39864;SDS011;25538;48.392;9.976;2022-12-24T17:14:54;4.80;;;3.03;;
39864;SDS011;25538;48.392;9.976;2022-12-24T17:17:24;3.27;;;3.07;;
39864;SDS011;25538;48.392;9.976;2022-12-24T17:19:52;4.55;;;4.00;;
39864;SDS011;25538;48.392;9.976;2022-12-24T17:22:19;4.03;;;3.45;;
39864;SDS011;25538;48.392;9.976;2022-12-24T17:24:45;5.90;;;4.27;;
39864;SDS011;25538;48.392;9.976;2022-12-24T17:27:11;4.10;;;3.70;;